Time;durP1;ratioP1;P1;durP2;ratioP2;P2;SDS_P1;SDS_P2;PMS_P1;PMS_P2;Temp;Humidity;BMP_temperature;BMP_pressure;BME280_temperature;BME280_humidity;BME280_pressure;Samples;Min_cycle;Max_cycle;Signal;HPM_P1;HPM_P2
2022/01/29 00:01:51;;;;;;;9.20;5.10;;;;;;;-0.17;100.00;97735.28;4997754;28;20535;-74
2022/01/29 00:04:18;;;;;;;8.17;5.67;;;;;;;0.23;100.00;97803.09;5013694;28;20963;-74
2022/01/29 00:06:45;;;;;;;9.30;6.27;;;;;;;0.04;100.00;97754.78;5014411;28;20542;-74
2022/01/29 00:09:15;;;;;;;19.80;7.37;;;;;;;0.17;100.00;97772.78;5015400;28;20427;-74
2022/01/29 00:11:45;;;;;;;10.80;6.40;;;;;;;0.09;100.00;97749.69;5013706;28;20485;-74
2022/01/29 00:14:11;;;;;;;14.67;8.70;;;;;;;0.21;100.00;97767.94;4996959;28;20562;-74
2022/01/29 00:16:40;;;;;;;13.60;7.97;;;;;;;0.19;100.00;97747.34;4997091;28;20458;-74
2022/01/29 00:19:07;;;;;;;10.17;7.17;;;;;;;0.26;100.00;97768.81;5014627;28;20962;-74
2022/01/29 00:21:34;;;;;;;15.37;8.20;;;;;;;0.06;100.00;97723.34;5015072;28;20478;-74
2022/01/29 00:24:01;;;;;;;18.60;9.20;;;;;;;0.10;100.00;97717.47;5013349;28;20579;-74
2022/01/29 00:26:28;;;;;;;13.03;8.20;;;;;;;0.31;100.00;97742.16;5013294;28;20438;-74
2022/01/29 00:28:57;;;;;;;19.17;8.37;;;;;;;0.11;100.00;97711.25;4996682;28;20478;-73
2022/01/29 00:31:24;;;;;;;9.43;7.20;;;;;;;0.33;100.00;97750.53;5014218;28;20435;-74
2022/01/29 00:33:51;;;;;;;16.40;9.40;;;;;;;0.13;100.00;97713.63;5012863;28;20897;-73
2022/01/29 00:36:18;;;;;;;12.80;8.00;;;;;;;0.15;100.00;97709.03;5012983;28;20483;-74
2022/01/29 00:38:45;;;;;;;13.07;8.10;;;;;;;0.20;100.00;97704.72;5013397;28;20522;-74
2022/01/29 00:41:11;;;;;;;19.13;10.20;;;;;;;0.29;100.00;97711.19;4996800;28;20830;-73
2022/01/29 00:43:38;;;;;;;14.80;9.33;;;;;;;0.40;100.00;97729.59;5012943;28;20903;-73
2022/01/29 00:46:04;;;;;;;16.23;9.77;;;;;;;0.43;100.00;97732.56;4996722;28;20465;-73
2022/01/29 00:48:31;;;;;;;24.07;11.00;;;;;;;0.28;100.00;97704.41;5013540;28;20443;-73
2022/01/29 00:51:00;;;;;;;16.30;10.80;;;;;;;0.30;100.00;97709.38;4996901;28;20952;-74
2022/01/29 00:53:27;;;;;;;14.93;10.73;;;;;;;0.46;100.00;97726.91;5014381;28;20466;-74
2022/01/29 00:55:53;;;;;;;16.33;10.00;;;;;;;0.29;100.00;97690.38;4996250;28;20479;-73
2022/01/29 00:58:20;;;;;;;19.70;11.00;;;;;;;0.55;100.00;97722.94;5013639;28;20841;-74
2022/01/29 01:00:47;;;;;;;23.30;10.57;;;;;;;0.36;100.00;97692.84;5013724;28;20537;-74
2022/01/29 01:03:13;;;;;;;13.40;10.43;;;;;;;0.57;100.00;97718.31;5012397;28;20881;-73
2022/01/29 01:05:40;;;;;;;18.77;12.33;;;;;;;0.61;100.00;97721.22;5013383;28;20486;-74
2022/01/29 01:08:11;;;;;;;8.53;6.77;;;;;;;0.47;100.00;97696.47;5012377;28;20451;-74
2022/01/29 01:10:38;;;;;;;17.20;11.83;;;;;;;0.55;100.00;97709.94;5012361;28;20431;-74
2022/01/29 01:13:05;;;;;;;16.73;10.60;;;;;;;0.37;100.00;97670.22;5013809;28;20453;-75
2022/01/29 01:15:32;;;;;;;21.67;11.20;;;;;;;0.64;100.00;97715.56;5013696;28;20534;-75
2022/01/29 01:17:59;;;;;;;16.60;12.63;;;;;;;0.74;100.00;97720.19;5013672;28;20877;-75
2022/01/29 01:20:26;;;;;;;12.97;10.00;;;;;;;0.59;100.00;97685.03;5012179;28;20530;-73
2022/01/29 01:22:53;;;;;;;22.60;13.50;;;;;;;0.64;100.00;97689.53;5012394;28;20435;-74
2022/01/29 01:25:20;;;;;;;16.80;10.70;;;;;;;0.73;100.00;97701.19;5012633;28;20466;-74
2022/01/29 01:27:47;;;;;;;16.17;13.93;;;;;;;0.55;100.00;97676.09;4996198;28;20478;-74
2022/01/29 01:30:14;;;;;;;19.70;13.03;;;;;;;0.50;100.00;97670.78;5011467;28;20451;-74
2022/01/29 01:32:41;;;;;;;25.27;13.80;;;;;;;0.51;100.00;97672.34;5012340;28;20462;-74
2022/01/29 01:35:19;;;;;;;21.20;11.90;;;;;;;0.63;100.00;97681.97;4995612;28;20658;-74
2022/01/29 01:37:51;;;;;;;17.43;12.40;;;;;;;0.68;100.00;97690.69;5013478;28;20769;-74
2022/01/29 01:40:19;;;;;;;19.60;14.47;;;;;;;0.63;100.00;97680.16;5012094;28;20428;-74
2022/01/29 01:42:46;;;;;;;24.10;13.47;;;;;;;0.83;100.00;97705.81;5013113;28;20439;-73
2022/01/29 01:45:13;;;;;;;23.17;13.57;;;;;;;0.72;100.00;97697.00;4995480;28;21015;-74
2022/01/29 01:47:40;;;;;;;25.60;13.40;;;;;;;0.83;100.00;97709.22;4995487;28;20479;-74
2022/01/29 01:50:08;;;;;;;15.83;10.93;;;;;;;0.81;100.00;97711.25;5013328;28;20466;-75
2022/01/29 01:52:35;;;;;;;17.50;13.83;;;;;;;0.76;100.00;97712.94;5013150;28;20885;-72
2022/01/29 01:55:02;;;;;;;21.43;16.30;;;;;;;0.54;100.00;97668.53;5012507;28;20463;-73
2022/01/29 01:57:30;;;;;;;22.40;15.10;;;;;;;0.75;100.00;97703.56;4994817;28;20479;-74
2022/01/29 01:59:56;;;;;;;26.83;16.20;;;;;;;0.75;100.00;97693.16;5012550;28;20861;-74
2022/01/29 02:02:23;;;;;;;29.30;16.93;;;;;;;0.68;100.00;97690.69;5010846;28;20466;-74
2022/01/29 02:04:51;;;;;;;22.37;15.50;;;;;;;0.63;100.00;97676.75;5011019;28;20833;-74
2022/01/29 02:07:18;;;;;;;24.23;15.53;;;;;;;0.51;100.00;97650.75;5011014;28;20790;-74
2022/01/29 02:09:45;;;;;;;18.73;14.57;;;;;;;0.78;100.00;97682.28;5011329;28;20463;-74
2022/01/29 02:12:13;;;;;;;23.60;16.00;;;;;;;0.71;100.00;97668.63;4994863;28;20475;-74
2022/01/29 02:14:40;;;;;;;20.27;15.03;;;;;;;0.78;100.00;97682.28;5011368;28;20501;-74
2022/01/29 02:17:08;;;;;;;24.27;14.27;;;;;;;0.55;100.00;97649.28;5012293;28;21002;-74
2022/01/29 02:19:35;;;;;;;24.80;15.33;;;;;;;0.43;100.00;97632.91;5010920;28;20537;-74
2022/01/29 02:22:03;;;;;;;22.83;14.60;;;;;;;0.74;100.00;97668.16;5010859;28;20526;-74
2022/01/29 02:24:30;;;;;;;20.60;14.20;;;;;;;0.78;100.00;97659.63;5010567;28;20478;-74
2022/01/29 02:26:57;;;;;;;19.47;14.70;;;;;;;0.39;100.00;97598.75;5010880;28;20488;-74
2022/01/29 02:29:23;;;;;;;21.30;15.10;;;;;;;0.77;100.00;97649.47;5010577;28;20569;-74
2022/01/29 02:31:53;;;;;;;26.63;16.17;;;;;;;0.59;100.00;97614.78;5010892;28;20526;-74
2022/01/29 02:34:21;;;;;;;20.93;13.00;;;;;;;0.78;100.00;97640.63;5010530;28;20470;-74
2022/01/29 02:36:48;;;;;;;26.13;15.30;;;;;;;0.77;100.00;97633.84;5010892;28;20439;-74
2022/01/29 02:39:19;;;;;;;21.37;15.30;;;;;;;0.54;100.00;97593.88;5010976;28;21007;-74
2022/01/29 02:41:46;;;;;;;18.13;12.47;;;;;;;0.43;100.00;97567.88;5010705;28;20466;-74
2022/01/29 02:44:20;;;;;;;23.13;15.67;;;;;;;0.76;100.00;97611.44;4994595;28;20546;-74
2022/01/29 02:49:21;;;;;;;28.17;16.60;;;;;;;0.57;100.00;97577.78;5010623;28;20443;-74
2022/01/29 02:51:53;;;;;;;23.93;14.67;;;;;;;0.75;100.00;97604.66;4994474;28;20924;-74
2022/01/29 02:54:20;;;;;;;25.80;14.63;;;;;;;0.74;100.00;97592.66;5010395;28;20470;-74
2022/01/29 02:56:47;;;;;;;22.90;14.40;;;;;;;0.58;100.00;97573.38;5010612;28;20455;-74
2022/01/29 02:59:14;;;;;;;20.80;14.20;;;;;;;0.76;100.00;97585.41;4994238;28;20958;-74
2022/01/29 03:01:41;;;;;;;24.93;15.17;;;;;;;0.61;100.00;97559.91;5011691;28;20466;-74
2022/01/29 03:04:09;;;;;;;24.10;15.40;;;;;;;0.75;100.00;97578.63;5010154;28;20463;-74
2022/01/29 03:06:36;;;;;;;23.40;14.60;;;;;;;0.58;100.00;97540.34;5012007;28;20439;-74
2022/01/29 03:09:05;;;;;;;23.73;14.90;;;;;;;0.74;100.00;97566.63;4994173;28;20438;-74
2022/01/29 03:11:32;;;;;;;24.13;15.10;;;;;;;0.76;100.00;97565.38;4993879;28;20530;-74
2022/01/29 03:13:59;;;;;;;27.03;15.67;;;;;;;0.78;100.00;97572.97;5010162;28;20475;-74
2022/01/29 03:16:25;;;;;;;23.00;15.17;;;;;;;0.79;100.00;97572.72;5010197;28;20453;-74
2022/01/29 03:18:52;;;;;;;26.20;16.20;;;;;;;0.64;100.00;97537.81;5011516;28;20506;-74
2022/01/29 03:21:19;;;;;;;26.17;16.53;;;;;;;0.78;100.00;97565.16;5009975;28;20558;-74
2022/01/29 03:23:45;;;;;;;23.23;13.63;;;;;;;0.78;100.00;97563.34;4993656;28;20554;-74
2022/01/29 03:26:12;;;;;;;24.03;14.30;;;;;;;0.57;100.00;97523.16;5010008;28;20821;-74
2022/01/29 03:28:39;;;;;;;23.93;14.20;;;;;;;0.62;100.00;97519.84;4993885;28;20517;-74
2022/01/29 03:31:05;;;;;;;22.77;15.00;;;;;;;0.64;100.00;97514.41;5010286;28;20815;-74
2022/01/29 03:33:32;;;;;;;21.93;14.07;;;;;;;0.63;100.00;97518.03;5009590;28;20506;-74
2022/01/29 03:35:59;;;;;;;21.00;14.03;;;;;;;0.54;100.00;97494.22;5011778;28;20443;-74
2022/01/29 03:38:26;;;;;;;22.30;14.40;;;;;;;0.75;100.00;97521.38;4993977;28;20471;-75
2022/01/29 03:40:55;;;;;;;26.10;14.40;;;;;;;0.84;100.00;97548.63;5011476;28;20443;-75
2022/01/29 03:43:29;;;;;;;22.33;14.50;;;;;;;0.62;100.00;97509.44;4993578;28;20879;-74
2022/01/29 03:45:56;;;;;;;16.70;12.87;;;;;;;0.64;100.00;97498.78;5011229;28;20444;-74
2022/01/29 03:48:23;;;;;;;29.00;12.07;;;;;;;0.66;100.00;97504.53;5011024;28;20435;-74
2022/01/29 03:50:49;;;;;;;21.73;13.13;;;;;;;0.65;100.00;97482.94;5009839;28;21027;-74
2022/01/29 03:53:16;;;;;;;20.87;12.93;;;;;;;0.68;100.00;97492.91;5012441;28;20490;-74
2022/01/29 03:55:43;;;;;;;18.67;12.77;;;;;;;0.82;100.00;97509.81;5013166;28;20474;-74
2022/01/29 03:58:10;;;;;;;18.60;12.47;;;;;;;0.84;100.00;97512.16;5014825;28;20538;-74
2022/01/29 04:00:37;;;;;;;18.17;11.47;;;;;;;0.83;100.00;97510.59;5013646;28;20458;-74
2022/01/29 04:03:03;;;;;;;19.10;12.60;;;;;;;0.65;100.00;97480.34;5013579;28;20446;-74
2022/01/29 04:05:30;;;;;;;21.10;14.00;;;;;;;0.78;100.00;97498.25;5013212;28;20431;-74
2022/01/29 04:07:57;;;;;;;23.27;15.97;;;;;;;0.72;100.00;97480.19;5013020;28;20427;-74
2022/01/29 04:10:26;;;;;;;25.17;13.13;;;;;;;0.75;100.00;97493.53;4996971;28;20482;-74
2022/01/29 04:12:53;;;;;;;18.07;14.10;;;;;;;0.78;100.00;97489.66;5013032;28;20529;-74
2022/01/29 04:15:20;;;;;;;22.80;16.47;;;;;;;0.75;100.00;97484.94;5012798;28;20553;-74
2022/01/29 04:17:47;;;;;;;15.50;12.97;;;;;;;0.72;100.00;97480.19;5013009;28;20447;-74
2022/01/29 04:20:13;;;;;;;18.30;12.97;;;;;;;0.84;100.00;97488.75;5014191;28;21027;-74
2022/01/29 04:22:40;;;;;;;23.03;14.93;;;;;;;0.84;100.00;97484.31;5014361;28;20435;-74
2022/01/29 04:25:07;;;;;;;19.57;10.90;;;;;;;0.86;100.00;97484.88;4996531;28;20513;-74
2022/01/29 04:27:39;;;;;;;16.27;13.50;;;;;;;0.76;100.00;97470.91;5012895;28;20446;-74
2022/01/29 04:30:11;;;;;;;17.83;12.07;;;;;;;0.64;100.00;97446.75;5012852;28;20518;-74
2022/01/29 04:35:05;;;;;;;17.90;13.17;;;;;;;0.79;100.00;97463.41;5012221;28;20569;-74
2022/01/29 04:37:31;;;;;;;19.73;11.80;;;;;;;0.68;100.00;97450.47;5014043;28;20447;-74
2022/01/29 04:39:58;;;;;;;26.50;14.17;;;;;;;0.65;100.00;97435.31;5012334;28;20479;-74
2022/01/29 04:42:26;;;;;;;19.63;13.67;;;;;;;0.42;100.00;97405.03;5012496;28;20901;-74
2022/01/29 04:44:52;;;;;;;18.20;12.43;;;;;;;0.91;100.00;97473.75;5012836;28;20853;-74
2022/01/29 04:47:19;;;;;;;14.37;10.40;;;;;;;0.78;100.00;97454.00;5012684;28;20470;-74
2022/01/29 04:49:46;;;;;;;21.17;13.47;;;;;;;0.90;100.00;97456.56;5012227;28;20435;-74
2022/01/29 04:52:12;;;;;;;17.93;12.80;;;;;;;0.66;100.00;97414.25;4995983;28;20439;-74
2022/01/29 04:54:39;;;;;;;13.20;9.57;;;;;;;0.86;100.00;97445.81;5013618;28;20466;-74
2022/01/29 04:57:05;;;;;;;16.50;11.37;;;;;;;0.88;100.00;97448.97;5011971;28;20517;-74
2022/01/29 04:59:32;;;;;;;19.90;10.73;;;;;;;0.71;100.00;97426.56;4995749;28;20529;-74
2022/01/29 05:01:59;;;;;;;17.10;12.33;;;;;;;0.76;100.00;97426.66;5013465;28;20442;-74
2022/01/29 05:04:26;;;;;;;15.43;10.40;;;;;;;0.87;100.00;97457.81;5011088;28;20469;-74
2022/01/29 05:06:52;;;;;;;19.17;12.70;;;;;;;0.91;100.00;97446.94;5011743;28;20439;-74
2022/01/29 05:09:19;;;;;;;17.33;11.93;;;;;;;0.64;100.00;97407.72;4995593;28;20530;-74
2022/01/29 05:11:49;;;;;;;17.00;10.87;;;;;;;0.87;100.00;97441.41;5012158;28;20471;-74
2022/01/29 05:14:27;;;;;;;17.77;11.23;;;;;;;0.72;100.00;97412.53;5012926;28;21149;-74
2022/01/29 05:27:54;;;;;;;15.83;9.80;;;;;;;0.83;100.00;97450.72;5011754;28;20501;-74
2022/01/29 05:30:21;;;;;;;12.80;7.50;;;;;;;0.49;100.00;97397.84;5011646;28;20435;-74
2022/01/29 05:32:48;;;;;;;17.70;10.10;;;;;;;0.82;100.00;97425.72;5011370;28;20438;-74
2022/01/29 05:35:14;;;;;;;11.37;7.73;;;;;;;0.72;100.00;97417.75;5011337;28;20486;-74
2022/01/29 05:37:41;;;;;;;13.47;8.07;;;;;;;0.56;100.00;97368.06;5012693;28;20435;-74
2022/01/29 05:40:08;;;;;;;15.47;10.00;;;;;;;0.71;100.00;97413.56;5011292;28;20438;-73
2022/01/29 05:42:35;;;;;;;15.37;11.37;;;;;;;0.71;100.00;97398.75;4995142;28;20493;-74
2022/01/29 05:45:03;;;;;;;10.13;9.23;;;;;;;0.78;100.00;97401.16;5012743;28;20991;-73
2022/01/29 05:47:29;;;;;;;14.03;10.73;;;;;;;0.64;100.00;97373.88;5012856;28;20427;-74
2022/01/29 05:49:56;;;;;;;14.03;9.90;;;;;;;0.69;100.00;97381.78;5011268;28;20479;-74
2022/01/29 05:52:23;;;;;;;13.50;9.10;;;;;;;0.66;100.00;97377.03;5012609;28;20469;-74
2022/01/29 05:54:51;;;;;;;16.13;8.20;;;;;;;0.76;100.00;97387.59;4994941;28;20499;-74
2022/01/29 05:57:18;;;;;;;9.50;6.77;;;;;;;0.78;100.00;97385.56;5012276;28;20457;-74
2022/01/29 05:59:45;;;;;;;14.27;8.30;;;;;;;0.75;100.00;97383.44;5010883;28;20443;-74
2022/01/29 06:02:11;;;;;;;10.43;9.40;;;;;;;0.74;100.00;97376.66;5011262;28;20458;-74
2022/01/29 06:04:38;;;;;;;14.90;9.60;;;;;;;0.63;100.00;97360.09;4994807;28;20525;-74
2022/01/29 06:07:05;;;;;;;14.63;9.83;;;;;;;0.53;100.00;97352.13;5012699;28;20466;-74
2022/01/29 06:09:31;;;;;;;13.63;9.73;;;;;;;0.35;100.00;97319.31;4994953;28;20501;-74
2022/01/29 06:11:58;;;;;;;15.17;10.40;;;;;;;0.47;100.00;97337.47;4995209;28;20448;-74
2022/01/29 06:14:25;;;;;;;13.23;8.50;;;;;;;0.76;100.00;97364.97;4994253;28;20459;-74
2022/01/29 06:16:51;;;;;;;13.53;9.70;;;;;;;0.59;100.00;97341.56;5010762;28;20446;-74
2022/01/29 06:19:18;;;;;;;13.70;8.43;;;;;;;0.71;100.00;97356.31;5012542;28;20431;-74
2022/01/29 06:21:45;;;;;;;12.87;7.87;;;;;;;0.73;100.00;97362.06;5012494;28;20843;-74
2022/01/29 06:24:11;;;;;;;13.30;9.00;;;;;;;0.63;100.00;97354.88;5010755;28;20461;-74
2022/01/29 06:26:38;;;;;;;11.20;8.90;;;;;;;0.55;100.00;97339.69;5010591;28;20474;-74
2022/01/29 06:29:05;;;;;;;15.90;8.97;;;;;;;0.53;100.00;97326.88;5010758;28;20431;-74
2022/01/29 06:31:31;;;;;;;11.70;7.27;;;;;;;0.69;100.00;97355.75;4994315;28;20482;-74
2022/01/29 06:33:58;;;;;;;14.37;9.03;;;;;;;0.71;100.00;97351.09;5010677;28;20467;-74
2022/01/29 06:36:25;;;;;;;13.33;8.47;;;;;;;0.75;100.00;97353.00;4993967;28;20499;-73
2022/01/29 06:38:51;;;;;;;13.97;10.37;;;;;;;0.58;100.00;97329.59;5010412;28;20477;-73
2022/01/29 06:41:18;;;;;;;14.70;8.37;;;;;;;0.70;100.00;97337.31;5010231;28;20493;-74
2022/01/29 06:43:44;;;;;;;13.20;8.57;;;;;;;0.64;100.00;97334.84;5010283;28;20462;-73
2022/01/29 06:46:11;;;;;;;12.60;8.30;;;;;;;0.68;100.00;97344.56;5010645;28;20439;-73
2022/01/29 06:48:38;;;;;;;15.20;9.77;;;;;;;0.65;100.00;97329.41;4993948;28;20529;-73
2022/01/29 06:51:05;;;;;;;14.23;8.80;;;;;;;0.59;100.00;97320.75;5010119;28;20447;-74
2022/01/29 06:53:32;;;;;;;16.40;8.83;;;;;;;0.58;100.00;97319.16;5010036;28;20462;-74
2022/01/29 06:55:59;;;;;;;19.87;13.40;;;;;;;0.46;100.00;97296.88;5010410;28;20896;-74
2022/01/29 06:58:25;;;;;;;13.93;9.53;;;;;;;0.55;100.00;97317.06;5011626;28;20852;-74
2022/01/29 07:01:12;;;;;;;17.80;9.97;;;;;;;0.62;100.00;97329.88;5010270;28;20435;-74
2022/01/29 07:03:39;;;;;;;14.87;10.30;;;;;;;0.53;100.00;97316.47;4993680;28;20561;-74
2022/01/29 07:06:06;;;;;;;21.10;12.33;;;;;;;0.49;100.00;97309.41;4994036;28;20864;-74
2022/01/29 07:08:37;;;;;;;19.70;11.30;;;;;;;0.71;100.00;97343.28;4993898;28;20443;-74
2022/01/29 07:11:04;;;;;;;14.63;9.70;;;;;;;0.46;100.00;97309.88;4993945;28;20478;-74
2022/01/29 07:13:31;;;;;;;19.47;10.07;;;;;;;0.63;100.00;97325.47;5011409;28;20458;-74
2022/01/29 07:15:58;;;;;;;16.57;12.90;;;;;;;0.50;100.00;97303.16;4993671;28;20501;-74
2022/01/29 07:18:24;;;;;;;24.03;15.40;;;;;;;0.63;100.00;97315.84;5010098;28;20514;-74
2022/01/29 07:20:51;;;;;;;14.03;8.60;;;;;;;0.50;100.00;97290.94;5009983;28;20443;-74
2022/01/29 07:23:18;;;;;;;18.00;11.87;;;;;;;0.47;100.00;97286.22;5010049;28;20501;-74
2022/01/29 07:25:44;;;;;;;24.73;14.90;;;;;;;0.68;100.00;97320.38;5010420;28;20483;-74
2022/01/29 07:28:11;;;;;;;32.03;15.63;;;;;;;0.71;100.00;97332.88;4994862;28;20478;-74
2022/01/29 07:30:38;;;;;;;21.30;12.47;;;;;;;0.57;100.00;97316.81;5013913;28;20439;-74
2022/01/29 07:33:04;;;;;;;14.00;11.80;;;;;;;0.60;100.00;97308.53;5014862;28;20441;-74
2022/01/29 07:35:31;;;;;;;20.97;12.77;;;;;;;0.41;100.00;97281.19;4997410;28;20516;-74
2022/01/29 07:37:58;;;;;;;22.00;13.57;;;;;;;0.67;100.00;97326.56;4997370;28;20530;-74
2022/01/29 07:40:24;;;;;;;20.07;13.10;;;;;;;0.52;100.00;97298.50;5013510;28;20431;-74
2022/01/29 07:42:51;;;;;;;24.60;16.40;;;;;;;0.56;100.00;97295.22;4997385;28;20955;-74
2022/01/29 07:45:18;;;;;;;20.67;12.70;;;;;;;0.72;100.00;97313.66;5013623;28;20440;-74
2022/01/29 07:47:44;;;;;;;25.27;16.17;;;;;;;0.48;100.00;97276.59;5013980;28;20442;-74
2022/01/29 07:50:11;;;;;;;17.33;11.83;;;;;;;0.74;100.00;97306.38;5014033;28;20488;-75
2022/01/29 07:52:38;;;;;;;36.87;20.80;;;;;;;0.54;100.00;97279.06;5014132;28;20439;-74
2022/01/29 07:55:07;;;;;;;22.10;15.57;;;;;;;0.73;100.00;97304.81;5013226;28;21007;-74
2022/01/29 07:57:34;;;;;;;20.20;14.87;;;;;;;0.75;100.00;97285.31;5013587;28;20478;-73
2022/01/29 08:00:00;;;;;;;20.67;16.53;;;;;;;0.56;100.00;97268.41;5013170;28;20474;-74
2022/01/29 08:02:27;;;;;;;17.20;13.47;;;;;;;0.75;100.00;97285.31;5013298;28;20471;-74
2022/01/29 08:04:54;;;;;;;23.73;16.27;;;;;;;0.71;100.00;97270.44;5014607;28;20458;-74
2022/01/29 08:07:20;;;;;;;32.10;23.13;;;;;;;0.49;100.00;97236.56;5013276;28;20435;-74
2022/01/29 08:09:48;;;;;;;15.30;11.93;;;;;;;0.77;100.00;97285.06;5014460;28;20437;-74
2022/01/29 08:12:14;;;;;;;17.70;12.80;;;;;;;0.66;100.00;97265.13;5014829;28;20485;-74
2022/01/29 08:14:41;;;;;;;22.53;15.93;;;;;;;0.61;100.00;97252.84;5015210;28;20457;-74
2022/01/29 08:17:08;;;;;;;18.43;13.10;;;;;;;0.58;100.00;97263.75;5013491;28;20529;-74
2022/01/29 08:19:34;;;;;;;21.33;15.10;;;;;;;0.84;100.00;97294.31;5013578;28;20492;-74
2022/01/29 08:22:05;;;;;;;16.90;12.67;;;;;;;0.86;100.00;97292.25;4997970;28;20514;-75
2022/01/29 08:24:32;;;;;;;80.40;48.77;;;;;;;0.85;100.00;97282.06;5014522;28;20975;-74
2022/01/29 08:26:59;;;;;;;21.23;15.43;;;;;;;0.77;100.00;97267.66;5012743;28;20482;-74
2022/01/29 08:29:25;;;;;;;58.53;33.60;;;;;;;0.62;100.00;97236.22;5012895;28;20877;-74
2022/01/29 08:31:52;;;;;;;22.80;15.00;;;;;;;0.61;100.00;97229.44;5012735;28;20469;-74
2022/01/29 08:34:19;;;;;;;19.43;11.10;;;;;;;0.82;100.00;97266.94;5012770;28;20509;-73
2022/01/29 08:36:45;;;;;;;19.70;11.83;;;;;;;0.84;100.00;97263.06;4996247;28;21008;-74
2022/01/29 08:39:12;;;;;;;20.80;15.03;;;;;;;0.66;100.00;97221.69;5012261;28;20872;-74
2022/01/29 08:41:39;;;;;;;18.87;12.03;;;;;;;0.74;100.00;97225.72;5012813;28;20957;-74
2022/01/29 08:44:05;;;;;;;15.27;10.47;;;;;;;0.65;100.00;97211.53;4997164;28;21046;-74
2022/01/29 08:46:32;;;;;;;17.57;12.00;;;;;;;0.77;100.00;97222.63;5012507;28;20474;-74
2022/01/29 08:48:59;;;;;;;17.83;13.37;;;;;;;0.90;100.00;97250.91;5012571;28;20497;-74
2022/01/29 08:51:26;;;;;;;19.33;14.20;;;;;;;0.93;100.00;97249.63;5012472;28;20431;-74
2022/01/29 08:53:52;;;;;;;17.67;13.40;;;;;;;0.75;100.00;97225.47;5013932;28;20454;-74
2022/01/29 08:56:19;;;;;;;15.13;10.40;;;;;;;0.74;100.00;97218.69;4995984;28;20565;-74
2022/01/29 08:58:46;;;;;;;21.97;15.00;;;;;;;0.68;100.00;97219.66;5012524;28;20538;-74
2022/01/29 09:01:13;;;;;;;21.70;15.00;;;;;;;0.98;100.00;97254.91;5012233;28;20447;-74
2022/01/29 09:03:40;;;;;;;18.20;11.93;;;;;;;0.98;100.00;97257.50;5014482;28;20467;-74
2022/01/29 09:06:07;;;;;;;19.47;12.77;;;;;;;0.97;100.00;97261.16;5012098;28;20471;-74
2022/01/29 09:08:34;;;;;;;20.50;11.00;;;;;;;0.80;100.00;97227.34;5013285;28;20443;-74
2022/01/29 09:11:01;;;;;;;14.73;12.20;;;;;;;1.02;100.00;97271.63;5012100;28;20439;-74
2022/01/29 09:13:28;;;;;;;21.80;14.30;;;;;;;0.92;100.00;97254.03;5013290;28;20537;-74
2022/01/29 09:15:56;;;;;;;11.83;9.37;;;;;;;1.04;100.00;97254.72;5013454;28;20562;-74
2022/01/29 09:18:23;;;;;;;18.07;10.17;;;;;;;1.02;100.00;97263.81;5012237;28;20505;-74
2022/01/29 09:20:50;;;;;;;11.80;9.20;;;;;;;0.84;100.00;97228.44;5013273;28;20459;-74
2022/01/29 09:23:17;;;;;;;19.37;10.20;;;;;;;1.05;100.00;97255.50;5012079;28;20521;-74
2022/01/29 09:25:44;;;;;;;18.23;11.80;;;;;;;1.07;100.00;97253.44;4996186;28;20431;-74
2022/01/29 09:28:12;;;;;;;19.13;12.87;;;;;;;1.00;100.00;97239.84;5011991;28;20483;-74
2022/01/29 09:30:40;;;;;;;19.57;14.23;;;;;;;0.72;100.00;97199.94;5011863;28;20447;-74
2022/01/29 09:33:06;;;;;;;18.00;12.20;;;;;;;1.11;100.00;97257.16;5011800;28;20478;-74
2022/01/29 09:35:34;;;;;;;11.37;9.67;;;;;;;0.92;100.00;97227.22;5011960;28;21046;-74
2022/01/29 09:38:00;;;;;;;17.93;13.60;;;;;;;0.76;100.00;97208.81;4996322;28;20440;-74
2022/01/29 09:40:27;;;;;;;18.23;12.57;;;;;;;0.91;100.00;97216.03;4996134;28;20443;-74
2022/01/29 09:42:54;;;;;;;18.97;13.13;;;;;;;1.03;100.00;97226.31;5013063;28;20439;-74
2022/01/29 09:45:22;;;;;;;17.27;11.13;;;;;;;0.87;100.00;97215.72;5011812;28;20474;-74
2022/01/29 09:47:49;;;;;;;18.20;13.13;;;;;;;1.06;100.00;97247.44;4995307;28;20443;-74
2022/01/29 09:50:17;;;;;;;12.63;9.07;;;;;;;0.97;100.00;97225.50;4995267;28;20439;-74
2022/01/29 09:52:45;;;;;;;15.10;10.87;;;;;;;1.04;100.00;97246.13;5013035;28;20441;-74
2022/01/29 09:55:12;;;;;;;10.70;8.03;;;;;;;0.87;100.00;97213.13;5012980;28;20866;-75
2022/01/29 09:57:39;;;;;;;17.63;11.53;;;;;;;0.74;100.00;97204.88;5011569;28;20447;-74
2022/01/29 10:00:07;;;;;;;18.57;13.00;;;;;;;1.07;100.00;97240.41;4995229;28;20518;-74
2022/01/29 10:02:40;;;;;;;18.30;12.90;;;;;;;0.94;100.00;97218.16;5011389;28;20458;-74
2022/01/29 10:05:08;;;;;;;21.33;10.70;;;;;;;1.09;100.00;97231.38;5011208;28;20561;-74
2022/01/29 10:07:35;;;;;;;22.03;14.20;;;;;;;1.08;100.00;97231.59;5012341;28;20927;-74
2022/01/29 10:10:16;;;;;;;17.20;12.67;;;;;;;1.14;100.00;97221.00;5011228;28;20447;-74
2022/01/29 10:12:43;;;;;;;20.70;12.83;;;;;;;0.96;100.00;97187.47;5011132;28;20446;-75
2022/01/29 10:15:10;;;;;;;24.83;15.03;;;;;;;0.91;100.00;97176.97;5012565;28;20450;-74
2022/01/29 10:17:44;;;;;;;24.53;14.40;;;;;;;1.21;100.00;97225.25;5011750;28;21055;-75
2022/01/29 10:20:24;;;;;;;21.80;15.13;;;;;;;1.18;100.00;97221.28;5011479;28;20466;-74
2022/01/29 10:22:54;;;;;;;19.10;14.67;;;;;;;1.27;100.00;97221.66;5011982;28;20477;-73
2022/01/29 10:25:22;;;;;;;14.43;10.13;;;;;;;1.23;100.00;97215.38;5010857;28;20932;-73
2022/01/29 10:28:14;;;;;;;13.20;9.67;;;;;;;1.20;100.00;97211.41;5012973;28;20474;-73
2022/01/29 10:30:51;;;;;;;18.40;11.70;;;;;;;1.18;100.00;97222.06;4994939;28;20916;-73
2022/01/29 10:33:35;;;;;;;10.33;7.07;;;;;;;1.12;100.00;97206.66;5011915;28;20561;-74
2022/01/29 10:36:07;;;;;;;14.40;10.60;;;;;;;1.05;100.00;97190.41;4994349;28;20493;-74
2022/01/29 10:38:40;;;;;;;15.57;10.80;;;;;;;1.23;100.00;97210.94;5011991;28;20764;-74
2022/01/29 10:41:14;;;;;;;11.70;8.50;;;;;;;1.24;100.00;97206.53;5011877;28;20431;-74
2022/01/29 10:44:10;;;;;;;16.67;10.73;;;;;;;1.26;100.00;97207.06;5012290;28;20461;-74
2022/01/29 10:46:53;;;;;;;12.03;9.07;;;;;;;1.26;100.00;97214.88;5010469;28;20439;-74
2022/01/29 10:49:20;;;;;;;12.03;9.10;;;;;;;1.23;100.00;97210.16;5010741;28;20469;-74
2022/01/29 10:52:12;;;;;;;12.37;10.50;;;;;;;1.26;100.00;97207.84;5011808;28;20442;-74
2022/01/29 10:54:41;;;;;;;13.07;9.60;;;;;;;1.24;100.00;97206.53;5011038;28;20450;-74
2022/01/29 10:57:15;;;;;;;13.77;9.40;;;;;;;1.28;100.00;97212.81;5011856;28;20964;-74
2022/01/29 10:59:50;;;;;;;9.37;8.10;;;;;;;1.26;100.00;97204.44;5011291;28;20447;-74
2022/01/29 11:02:20;;;;;;;12.50;9.40;;;;;;;1.29;100.00;97211.78;5010688;28;20923;-75
2022/01/29 11:04:50;;;;;;;17.20;9.80;;;;;;;1.20;100.00;97193.19;5014179;28;20459;-75
2022/01/29 11:07:18;;;;;;;11.63;7.30;;;;;;;1.18;100.00;97182.22;5015777;28;20427;-75
2022/01/29 11:09:50;;;;;;;9.67;6.10;;;;;;;1.01;100.00;97140.66;5016348;28;20828;-75
2022/01/29 11:12:19;;;;;;;9.70;5.73;;;;;;;1.30;100.00;97180.25;5015723;28;20419;-74
2022/01/29 11:14:48;;;;;;;9.07;7.10;;;;;;;1.33;100.00;97184.19;5014021;28;20876;-73
2022/01/29 11:17:18;;;;;;;9.40;6.90;;;;;;;1.14;100.00;97160.31;4997776;28;20458;-74
2022/01/29 11:19:46;;;;;;;7.13;5.80;;;;;;;1.10;100.00;97141.78;4998100;28;20435;-74
2022/01/29 11:22:18;;;;;;;9.60;7.90;;;;;;;1.15;100.00;97141.84;5014142;28;20468;-74
2022/01/29 11:24:47;;;;;;;5.10;4.60;;;;;;;1.25;100.00;97179.44;5015528;28;20862;-74
2022/01/29 11:27:31;;;;;;;17.03;6.67;;;;;;;1.26;100.00;97173.97;4998004;28;20434;-75
2022/01/29 11:30:03;;;;;;;12.00;6.93;;;;;;;1.30;100.00;97166.47;4998025;28;20463;-74
2022/01/29 11:32:33;;;;;;;10.60;7.70;;;;;;;1.19;100.00;97142.91;5018950;28;20431;-75
2022/01/29 11:35:00;;;;;;;10.50;7.20;;;;;;;1.26;100.00;97141.94;5025424;28;20585;-74
2022/01/29 11:37:42;;;;;;;9.20;7.57;;;;;;;1.39;100.00;97155.34;5025751;28;20462;-74
2022/01/29 11:40:20;;;;;;;7.63;3.90;;;;;;;0.99;100.00;97082.06;5026114;28;20429;-75